createdAt,value
2023-08-16T00:00:05.139Z,7.35
2023-08-16T00:02:31.917Z,6.82
2023-08-16T00:04:58.598Z,7.35
2023-08-16T00:07:25.710Z,7.15
2023-08-16T00:09:55.565Z,5.93
2023-08-16T00:12:23.381Z,5.00
2023-08-16T00:14:50.151Z,6.93
2023-08-16T00:17:16.688Z,8.18
2023-08-16T00:19:43.710Z,7.28
2023-08-16T00:22:10.319Z,7.77
2023-08-16T00:24:37.034Z,6.43
2023-08-16T00:27:04.454Z,6.50
2023-08-16T00:29:31.220Z,6.55
2023-08-16T00:31:59.073Z,7.22
2023-08-16T00:34:25.673Z,7.67
2023-08-16T00:36:52.447Z,8.73
2023-08-16T00:39:19.200Z,8.05
2023-08-16T00:41:45.796Z,6.30
2023-08-16T00:44:12.388Z,6.43
2023-08-16T00:46:39.255Z,6.43
2023-08-16T00:49:06.054Z,5.93
2023-08-16T00:51:32.776Z,7.13
2023-08-16T00:53:59.469Z,6.50
2023-08-16T00:56:26.193Z,6.75
2023-08-16T00:58:56.050Z,6.20
2023-08-16T01:01:22.836Z,7.10
2023-08-16T01:03:51.954Z,5.82
2023-08-16T01:06:18.709Z,7.10
2023-08-16T01:08:45.371Z,6.68
2023-08-16T01:11:20.489Z,6.63
2023-08-16T01:13:58.249Z,6.18
2023-08-16T01:16:29.134Z,6.30
2023-08-16T01:18:57.697Z,5.93
2023-08-16T01:21:25.687Z,6.40
2023-08-16T01:24:00.390Z,6.87
2023-08-16T01:26:40.266Z,6.65
2023-08-16T01:29:09.072Z,5.75
2023-08-16T01:31:36.355Z,5.63
2023-08-16T01:34:06.485Z,5.43
2023-08-16T01:36:35.922Z,4.77
2023-08-16T01:39:02.941Z,4.18
2023-08-16T01:41:39.977Z,5.03
2023-08-16T01:44:08.970Z,3.72
2023-08-16T01:46:39.138Z,3.40
2023-08-16T01:49:08.228Z,2.90
2023-08-16T01:51:35.080Z,4.07
2023-08-16T01:54:01.836Z,4.10
2023-08-16T01:56:30.907Z,4.20
2023-08-16T01:58:57.770Z,4.65
2023-08-16T02:01:24.817Z,5.23
2023-08-16T02:03:51.578Z,5.72
2023-08-16T02:06:18.678Z,5.15
2023-08-16T02:08:45.459Z,6.45
2023-08-16T02:11:12.413Z,6.50
2023-08-16T02:13:39.408Z,6.63
2023-08-16T02:16:08.542Z,6.25
2023-08-16T02:21:15.087Z,5.85
2023-08-16T02:23:41.714Z,5.97
2023-08-16T02:26:08.336Z,5.57
2023-08-16T02:28:35.622Z,7.38
2023-08-16T02:31:06.500Z,6.93
2023-08-16T02:33:40.571Z,7.45
2023-08-16T02:36:07.243Z,6.47
2023-08-16T02:38:36.189Z,6.37
2023-08-16T02:41:02.970Z,5.65
2023-08-16T02:43:29.641Z,6.07
2023-08-16T02:45:57.001Z,6.88
2023-08-16T02:48:23.656Z,7.00
2023-08-16T02:50:50.540Z,6.23
2023-08-16T02:53:17.879Z,6.03
2023-08-16T02:55:44.632Z,5.95
2023-08-16T02:58:11.384Z,5.65
2023-08-16T03:00:39.827Z,6.10
2023-08-16T03:03:07.553Z,6.00
2023-08-16T03:05:34.322Z,5.55
2023-08-16T03:08:00.981Z,6.40
2023-08-16T03:10:27.606Z,6.18
2023-08-16T03:12:54.300Z,6.40
2023-08-16T03:15:21.091Z,6.03
2023-08-16T03:17:47.845Z,5.88
2023-08-16T03:20:14.892Z,5.88
2023-08-16T03:22:45.168Z,5.82
2023-08-16T03:27:54.187Z,5.17
2023-08-16T03:30:20.945Z,5.03
2023-08-16T03:32:50.852Z,6.20
2023-08-16T03:35:21.494Z,5.95
2023-08-16T03:37:48.249Z,5.80
2023-08-16T03:40:16.368Z,6.00
2023-08-16T03:43:01.442Z,6.53
2023-08-16T03:45:40.777Z,5.43
2023-08-16T03:48:16.866Z,5.50
2023-08-16T03:50:52.920Z,5.13
2023-08-16T03:53:56.556Z,5.27
2023-08-16T03:59:11.811Z,5.80
2023-08-16T04:01:47.518Z,5.43
2023-08-16T04:08:11.574Z,5.93
2023-08-16T04:11:02.862Z,5.10
2023-08-16T04:14:15.770Z,4.38
2023-08-16T04:16:59.966Z,4.80
2023-08-16T04:19:26.531Z,5.05
2023-08-16T04:21:58.761Z,5.80
2023-08-16T04:24:25.477Z,6.35
2023-08-16T04:26:52.160Z,5.50
2023-08-16T04:29:19.331Z,6.15
2023-08-16T04:31:46.238Z,5.10
2023-08-16T04:34:19.836Z,5.87
2023-08-16T04:37:12.582Z,5.72
2023-08-16T04:39:49.714Z,5.10
2023-08-16T04:42:16.585Z,5.57
2023-08-16T04:45:12.771Z,5.22
2023-08-16T04:47:45.312Z,5.37
2023-08-16T04:50:12.054Z,6.13
2023-08-16T04:52:39.022Z,6.05
2023-08-16T04:55:06.839Z,6.00
2023-08-16T04:57:34.825Z,5.95
2023-08-16T05:00:05.036Z,6.67
2023-08-16T05:02:34.148Z,6.10
2023-08-16T05:05:01.171Z,6.90
2023-08-16T05:07:27.823Z,6.68
2023-08-16T05:10:01.491Z,6.97
2023-08-16T05:12:30.950Z,7.33
2023-08-16T05:14:57.781Z,7.93
2023-08-16T05:17:25.752Z,8.48
2023-08-16T05:20:14.376Z,7.35
2023-08-16T05:23:19.542Z,7.57
2023-08-16T05:25:47.474Z,6.33
2023-08-16T05:28:39.295Z,7.20
2023-08-16T05:31:11.280Z,6.63
2023-08-16T05:33:39.708Z,6.63
2023-08-16T05:36:11.110Z,7.00
2023-08-16T05:38:37.721Z,5.77
2023-08-16T05:41:11.911Z,5.53
2023-08-16T05:43:38.832Z,5.65
2023-08-16T05:46:08.074Z,6.20
2023-08-16T05:48:37.525Z,6.38
2023-08-16T05:54:51.050Z,5.60
2023-08-16T05:57:28.948Z,6.22
2023-08-16T06:00:01.687Z,6.53
2023-08-16T06:02:30.692Z,9.10
2023-08-16T06:05:00.227Z,8.03
2023-08-16T06:07:27.742Z,10.15
2023-08-16T06:09:54.590Z,11.88
2023-08-16T06:12:21.759Z,13.25
2023-08-16T06:17:31.082Z,13.30
2023-08-16T06:19:57.876Z,14.45
2023-08-16T06:22:24.574Z,14.98
2023-08-16T06:24:54.689Z,16.05
2023-08-16T06:27:22.039Z,16.65
2023-08-16T06:29:49.045Z,16.63
2023-08-16T06:32:16.033Z,17.05
2023-08-16T06:34:42.748Z,18.38
2023-08-16T06:37:09.441Z,18.70
2023-08-16T06:39:36.200Z,18.35
2023-08-16T06:42:06.698Z,19.60
2023-08-16T06:44:34.519Z,18.25
2023-08-16T06:47:01.207Z,19.55
2023-08-16T06:49:27.903Z,18.60
2023-08-16T06:51:54.538Z,18.73
2023-08-16T06:54:21.233Z,19.63
2023-08-16T06:56:59.708Z,19.92
2023-08-16T06:59:28.587Z,18.02
2023-08-16T07:01:55.351Z,13.30
2023-08-16T07:04:24.900Z,12.35
2023-08-16T07:06:51.761Z,12.00
2023-08-16T07:09:23.404Z,10.07
2023-08-16T07:11:52.832Z,9.55
2023-08-16T07:14:25.160Z,8.48
2023-08-16T07:16:54.678Z,7.75
2023-08-16T07:19:23.878Z,6.90
2023-08-16T07:21:50.964Z,5.78
2023-08-16T07:24:17.651Z,3.75
2023-08-16T07:26:46.624Z,3.78
2023-08-16T07:29:13.351Z,4.22
2023-08-16T07:31:40.057Z,3.40
2023-08-16T07:34:07.026Z,3.47
2023-08-16T07:36:35.053Z,3.55
2023-08-16T07:39:02.238Z,3.42
2023-08-16T07:41:29.069Z,3.90
2023-08-16T07:43:59.476Z,3.00
2023-08-16T07:46:27.084Z,3.20
2023-08-16T07:48:54.110Z,3.10
2023-08-16T07:51:22.015Z,2.70
2023-08-16T07:53:48.823Z,3.22
2023-08-16T07:56:15.505Z,2.90
2023-08-16T07:58:44.320Z,2.97
2023-08-16T08:01:17.498Z,3.08
2023-08-16T08:03:44.231Z,3.20
2023-08-16T08:06:11.040Z,3.05
2023-08-16T08:08:37.738Z,3.20
2023-08-16T08:11:07.825Z,3.40
2023-08-16T08:13:34.493Z,2.53
2023-08-16T08:16:01.904Z,2.70
2023-08-16T08:18:28.565Z,3.58
2023-08-16T08:20:58.334Z,3.30
2023-08-16T08:23:24.974Z,2.60
2023-08-16T08:25:51.757Z,2.63
2023-08-16T08:28:19.730Z,2.60
2023-08-16T08:30:46.287Z,2.60
2023-08-16T08:33:12.956Z,2.70
2023-08-16T08:35:44.486Z,3.10
2023-08-16T08:38:11.614Z,2.90
2023-08-16T08:40:38.253Z,2.70
2023-08-16T08:43:07.342Z,3.03
2023-08-16T08:45:35.642Z,2.57
2023-08-16T08:48:02.990Z,2.55
2023-08-16T08:50:29.923Z,2.22
2023-08-16T08:52:57.828Z,2.35
2023-08-16T08:55:30.017Z,2.58
2023-08-16T08:58:03.120Z,2.33
2023-08-16T09:00:33.170Z,2.45
2023-08-16T09:03:06.397Z,2.78
2023-08-16T09:05:34.154Z,2.50
2023-08-16T09:08:01.852Z,2.10
2023-08-16T09:10:28.435Z,2.20
2023-08-16T09:12:55.905Z,2.30
2023-08-16T09:15:22.889Z,2.30
2023-08-16T09:17:52.119Z,2.47
2023-08-16T09:20:19.461Z,2.63
2023-08-16T09:22:48.890Z,2.50
2023-08-16T09:25:18.160Z,2.47
2023-08-16T09:27:44.834Z,2.10
2023-08-16T09:30:14.746Z,2.00
2023-08-16T09:32:41.448Z,2.92
2023-08-16T09:35:13.742Z,2.37
2023-08-16T09:37:40.953Z,2.45
2023-08-16T09:40:08.174Z,2.55
2023-08-16T09:42:35.179Z,2.80
2023-08-16T09:45:04.321Z,2.95
2023-08-16T09:50:07.194Z,2.60
2023-08-16T09:52:36.045Z,2.40
2023-08-16T09:55:03.861Z,2.88
2023-08-16T09:57:31.513Z,2.50
2023-08-16T09:59:58.393Z,2.60
2023-08-16T10:07:26.961Z,2.10
2023-08-16T10:09:54.508Z,2.28
2023-08-16T10:12:21.918Z,2.13
2023-08-16T10:14:48.495Z,2.17
2023-08-16T10:17:17.825Z,2.13
2023-08-16T10:19:48.648Z,2.83
2023-08-16T10:22:35.350Z,2.15
2023-08-16T10:25:14.373Z,2.33
2023-08-16T10:27:45.588Z,2.17
2023-08-16T10:30:25.378Z,3.30
2023-08-16T10:33:06.160Z,2.10
2023-08-16T10:35:36.152Z,2.83
2023-08-16T10:38:03.168Z,2.30
2023-08-16T10:43:04.614Z,2.95
2023-08-16T10:48:14.598Z,2.50
2023-08-16T10:50:41.806Z,2.27
2023-08-16T10:53:09.203Z,2.03
2023-08-16T10:55:36.917Z,2.60
2023-08-16T10:58:03.716Z,2.30
2023-08-16T11:00:37.487Z,2.60
2023-08-16T11:03:07.061Z,3.00
2023-08-16T11:05:35.153Z,2.55
2023-08-16T11:08:02.867Z,2.33
2023-08-16T11:10:38.896Z,2.40
2023-08-16T11:13:11.870Z,2.83
2023-08-16T11:15:40.033Z,2.40
2023-08-16T11:18:10.184Z,2.20
2023-08-16T11:20:37.970Z,2.38
2023-08-16T11:23:04.846Z,2.40
2023-08-16T11:25:34.954Z,2.78
2023-08-16T11:28:05.416Z,2.90
2023-08-16T11:30:32.902Z,2.50
2023-08-16T11:33:00.518Z,2.42
2023-08-16T11:35:27.250Z,2.70
2023-08-16T11:37:54.004Z,2.33
2023-08-16T11:40:23.696Z,2.50
2023-08-16T11:42:52.025Z,2.03
2023-08-16T11:45:20.482Z,2.40
2023-08-16T11:47:53.171Z,2.45
2023-08-16T11:50:20.868Z,2.13
2023-08-16T11:53:00.975Z,1.73
2023-08-16T11:55:30.912Z,2.08
2023-08-16T11:58:11.106Z,2.30
2023-08-16T12:00:38.112Z,2.20
2023-08-16T12:03:08.451Z,2.92
2023-08-16T12:05:39.790Z,2.23
2023-08-16T12:08:08.065Z,1.55
2023-08-16T12:10:36.316Z,2.08
2023-08-16T12:13:14.118Z,1.85
2023-08-16T12:15:42.694Z,2.08
2023-08-16T12:18:09.565Z,2.00
2023-08-16T12:20:37.139Z,1.85
2023-08-16T12:23:04.072Z,2.05
2023-08-16T12:25:30.743Z,1.88
2023-08-16T12:27:57.392Z,2.15
2023-08-16T12:30:24.103Z,2.23
2023-08-16T12:32:50.817Z,2.20
2023-08-16T12:35:17.664Z,2.20
2023-08-16T12:37:45.389Z,2.40
2023-08-16T12:40:13.738Z,2.17
2023-08-16T12:42:41.628Z,2.33
2023-08-16T12:45:09.785Z,2.10
2023-08-16T12:47:36.843Z,2.22
2023-08-16T12:50:03.679Z,2.25
2023-08-16T12:52:30.360Z,2.72
2023-08-16T12:54:56.978Z,2.23
2023-08-16T12:57:26.359Z,2.33
2023-08-16T12:59:54.533Z,2.20
2023-08-16T13:02:36.362Z,2.00
2023-08-16T13:05:12.463Z,1.92
2023-08-16T13:10:23.156Z,2.22
2023-08-16T13:18:19.220Z,1.80
2023-08-16T13:25:37.335Z,2.10
2023-08-16T13:28:18.377Z,1.40
2023-08-16T13:30:49.591Z,1.50
2023-08-16T13:35:51.070Z,1.60
2023-08-16T13:38:18.300Z,1.67
2023-08-16T13:43:25.341Z,1.60
2023-08-16T13:45:53.186Z,1.93
2023-08-16T13:48:19.975Z,1.55
2023-08-16T13:50:46.969Z,1.52
2023-08-16T13:53:16.578Z,1.50
2023-08-16T13:55:45.982Z,1.98
2023-08-16T13:58:13.052Z,1.17
2023-08-16T14:00:39.641Z,1.88
2023-08-16T14:03:06.509Z,1.67
2023-08-16T14:05:33.329Z,1.30
2023-08-16T14:07:59.896Z,1.42
2023-08-16T14:10:26.677Z,1.50
2023-08-16T14:12:53.366Z,1.60
2023-08-16T14:15:20.074Z,1.25
2023-08-16T14:17:46.943Z,1.88
2023-08-16T14:20:13.610Z,1.40
2023-08-16T14:22:40.308Z,1.50
2023-08-16T14:25:09.324Z,1.98
2023-08-16T14:27:36.065Z,1.83
2023-08-16T14:30:02.731Z,1.10
2023-08-16T14:32:29.484Z,1.17
2023-08-16T14:34:57.431Z,0.80
2023-08-16T14:37:24.495Z,1.20
2023-08-16T14:39:51.065Z,1.10
2023-08-16T14:42:20.745Z,0.88
2023-08-16T14:44:47.991Z,1.00
2023-08-16T14:47:14.678Z,1.00
2023-08-16T14:49:41.546Z,1.30
2023-08-16T14:52:11.095Z,1.20
2023-08-16T14:54:37.795Z,1.00
2023-08-16T14:57:04.605Z,1.10
2023-08-16T14:59:31.172Z,1.30
2023-08-16T15:01:57.837Z,1.30
2023-08-16T15:04:27.069Z,1.20
2023-08-16T15:06:53.987Z,1.20
2023-08-16T15:09:20.793Z,1.33
2023-08-16T15:11:47.423Z,1.17
2023-08-16T15:14:14.107Z,1.10
2023-08-16T15:16:40.801Z,1.10
2023-08-16T15:19:07.520Z,1.10
2023-08-16T15:21:36.109Z,1.30
2023-08-16T15:24:05.918Z,1.10
2023-08-16T15:26:32.654Z,1.35
2023-08-16T15:28:59.131Z,1.20
2023-08-16T15:31:25.897Z,1.10
2023-08-16T15:33:52.859Z,1.15
2023-08-16T15:36:19.529Z,1.20
2023-08-16T15:38:51.317Z,1.17
2023-08-16T15:41:19.638Z,1.40
2023-08-16T15:43:49.384Z,1.00
2023-08-16T15:46:16.026Z,1.33
2023-08-16T15:48:42.786Z,1.13
2023-08-16T15:51:09.522Z,1.30
2023-08-16T15:53:36.375Z,1.23
2023-08-16T15:56:06.041Z,1.25
2023-08-16T15:58:32.959Z,1.30
2023-08-16T16:01:04.044Z,1.33
2023-08-16T16:03:35.305Z,1.48
2023-08-16T16:06:04.144Z,1.30
2023-08-16T16:08:32.812Z,1.17
2023-08-16T16:10:59.908Z,1.23
2023-08-16T16:13:27.029Z,1.20
2023-08-16T16:15:53.766Z,1.20
2023-08-16T16:18:22.428Z,1.15
2023-08-16T16:20:49.370Z,1.40
2023-08-16T16:23:16.019Z,1.70
2023-08-16T16:25:42.652Z,1.50
2023-08-16T16:28:09.473Z,1.60
2023-08-16T16:30:36.216Z,1.42
2023-08-16T16:33:03.305Z,1.40
2023-08-16T16:35:30.121Z,1.20
2023-08-16T16:37:57.525Z,1.33
2023-08-16T16:40:24.348Z,1.30
2023-08-16T16:42:51.952Z,1.60
2023-08-16T16:45:21.506Z,1.20
2023-08-16T16:47:51.848Z,1.52
2023-08-16T16:50:22.026Z,1.63
2023-08-16T16:52:54.227Z,1.42
2023-08-16T16:55:26.365Z,1.52
2023-08-16T16:57:58.043Z,1.30
2023-08-16T17:00:46.983Z,1.30
2023-08-16T17:03:22.158Z,1.20
2023-08-16T17:05:54.023Z,1.88
2023-08-16T17:08:25.728Z,1.55
2023-08-16T17:10:58.224Z,1.50
2023-08-16T17:13:36.418Z,1.60
2023-08-16T17:16:05.300Z,1.50
2023-08-16T17:18:34.946Z,1.05
2023-08-16T17:21:22.287Z,1.35
2023-08-16T17:23:54.628Z,0.90
2023-08-16T17:26:30.477Z,1.10
2023-08-16T17:29:02.884Z,1.30
2023-08-16T17:31:49.633Z,1.00
2023-08-16T17:34:26.885Z,1.27
2023-08-16T17:37:01.017Z,1.40
2023-08-16T17:39:30.613Z,1.20
2023-08-16T17:41:57.468Z,0.90
2023-08-16T17:44:31.625Z,1.20
2023-08-16T17:49:53.997Z,1.50
2023-08-16T17:52:25.708Z,1.05
2023-08-16T17:54:58.573Z,1.10
2023-08-16T17:57:28.390Z,1.38
2023-08-16T17:59:55.096Z,1.42
2023-08-16T18:02:32.068Z,1.80
2023-08-16T18:05:47.980Z,1.15
2023-08-16T18:18:27.895Z,1.13
2023-08-16T18:21:00.894Z,1.33
2023-08-16T18:36:35.948Z,1.58
2023-08-16T18:51:00.044Z,1.50
2023-08-16T18:53:26.733Z,1.23
2023-08-16T19:00:50.471Z,1.85
2023-08-16T19:03:17.165Z,1.58
2023-08-16T19:12:39.773Z,1.38
2023-08-16T19:15:08.111Z,1.80
2023-08-16T19:17:51.421Z,1.50
2023-08-16T19:20:27.000Z,1.60
2023-08-16T19:22:54.192Z,1.57
2023-08-16T19:25:20.919Z,1.58
2023-08-16T19:31:22.880Z,1.63
2023-08-16T19:34:01.006Z,1.60
2023-08-16T19:36:27.710Z,1.53
2023-08-16T19:38:55.215Z,1.50
2023-08-16T19:41:21.841Z,1.60
2023-08-16T19:46:43.590Z,1.73
2023-08-16T19:52:39.483Z,2.10
2023-08-16T20:01:38.602Z,2.20
2023-08-16T20:04:25.261Z,1.97
2023-08-16T20:07:07.110Z,2.25
2023-08-16T20:13:27.926Z,2.00
2023-08-16T20:16:15.189Z,1.98
2023-08-16T20:25:21.494Z,2.53
2023-08-16T20:28:00.279Z,2.88
2023-08-16T20:31:00.021Z,2.65
2023-08-16T20:40:29.074Z,3.10
2023-08-16T20:43:21.960Z,3.15
2023-08-16T20:45:48.633Z,2.60
2023-08-16T20:48:28.611Z,2.90
2023-08-16T20:51:04.263Z,2.95
2023-08-16T20:56:37.749Z,2.92
2023-08-16T21:00:14.527Z,2.85
2023-08-16T21:02:48.154Z,2.90
2023-08-16T21:06:37.265Z,2.50
2023-08-16T21:08:32.296Z,3.25
2023-08-16T21:16:37.760Z,2.67
2023-08-16T21:19:05.083Z,2.70
2023-08-16T21:21:43.518Z,2.63
2023-08-16T21:24:12.914Z,2.30
2023-08-16T21:26:50.777Z,2.60
2023-08-16T21:32:23.060Z,2.47
2023-08-16T21:34:52.805Z,2.95
2023-08-16T21:37:19.377Z,3.00
2023-08-16T21:39:47.202Z,3.17
2023-08-16T21:42:16.683Z,2.73
2023-08-16T21:45:04.961Z,2.92
2023-08-16T21:48:07.754Z,3.42
2023-08-16T21:51:09.722Z,3.08
2023-08-16T21:53:36.381Z,2.92
2023-08-16T21:56:09.489Z,2.47
2023-08-16T21:58:36.039Z,3.17
2023-08-16T22:01:08.578Z,2.80
2023-08-16T22:03:35.313Z,3.47
2023-08-16T22:06:07.705Z,3.40
2023-08-16T22:11:39.104Z,3.28
2023-08-16T22:14:05.789Z,4.93
2023-08-16T22:16:35.371Z,3.45
2023-08-16T22:19:02.067Z,3.17
2023-08-16T22:21:41.772Z,3.50
2023-08-16T22:27:07.771Z,3.88
2023-08-16T22:30:45.767Z,3.53
2023-08-16T22:33:12.354Z,3.17
2023-08-16T22:35:38.922Z,3.27
2023-08-16T22:41:36.562Z,3.60
2023-08-16T22:44:03.269Z,4.53
2023-08-16T22:46:31.593Z,4.70
2023-08-16T22:48:58.181Z,5.10
2023-08-16T22:51:52.322Z,4.60
2023-08-16T22:54:54.479Z,5.43
2023-08-16T23:00:36.570Z,4.60
2023-08-16T23:04:10.540Z,4.20
2023-08-16T23:09:06.564Z,4.07
2023-08-16T23:11:33.098Z,4.20
2023-08-16T23:13:59.674Z,4.25
2023-08-16T23:16:26.424Z,4.40
2023-08-16T23:19:12.977Z,3.90
2023-08-16T23:22:00.925Z,4.35
2023-08-16T23:27:19.570Z,4.20
2023-08-16T23:29:49.155Z,4.10
2023-08-16T23:32:23.185Z,4.32
2023-08-16T23:34:52.603Z,3.17
2023-08-16T23:47:30.835Z,3.70
2023-08-16T23:52:37.840Z,3.60
2023-08-16T23:55:05.472Z,3.35
2023-08-16T23:57:32.042Z,3.10
